Airport ID:CYTF
Update Time (UTC):06/02/2023 08:28
Wind Speed (Knots):4
Wind Direction (Magnetic):320
Temperature (°C):-13.4
Dew Point (°C):-15.7
Humidity (%):83
Altimeter (inHg):30.04
Density Altitude (Feet):\\\\
Visibility (Miles):6
Clouds (Hundreds of feet):\\\\
Present Weather:
METAR:METAR CYTF 060830Z AUTO 30005KT 10SM ///// M14/M16 A3003

The data displayed is for advisory purposes only and is not to be used for flight planning or operations.

This page is not automatically refreshed. Reload the page to see current data.